Stad Amsterdam — PECA — position and weather

sailwx.info

Track history (hours):
 
Tides and Currents Weather Stations Pressure Air Temp Water Temp Dewpoint Dewpoint Depression Visibility Wind Speed Wind Dir Waves Ship Positions

Stad Amsterdam (Netherlands)

Ship's website: http://www.stadamsterdam.com/content/home/index.xml

Last reported at 2018-Feb-21 17:29 UTC. Time now 2018-Feb-21 17:40 UTC.
Position N 33°43' W 118°17'.

Length 76 m; beam 10 m.

Type: Sailing vessel. MMSI: 246494000.

Date/timePositionNaut miles runAvg speedWind from/ knotsBaromVisibWave heightAir tempDewpointWater temp
2018-Feb-21 17:29N 33°43' W 118°17'0 0.0
2018-Feb-21 16:59N 33°43' W 118°17'0 0.0
2018-Feb-21 16:29N 33°43' W 118°17'0 0.0
2018-Feb-21 15:59N 33°43' W 118°17'0 0.0
2018-Feb-21 15:29N 33°43' W 118°17'0 0.0
2018-Feb-21 14:59N 33°43' W 118°17'0 0.0
2018-Feb-21 14:29N 33°43' W 118°17'0 0.0
2018-Feb-21 13:41N 33°43' W 118°17'0 0.0
2018-Feb-21 13:29N 33°43' W 118°17'0 0.0
2018-Feb-21 12:59N 33°43' W 118°17'0 0.0
2018-Feb-21 12:29N 33°43' W 118°17'0 0.0
2018-Feb-21 11:59N 33°43' W 118°17'0 0.0
2018-Feb-21 11:17N 33°43' W 118°17'0 0.0
2018-Feb-21 10:59N 33°43' W 118°17'0 0.0
2018-Feb-21 09:17N 33°43' W 118°17'0 0.0
2018-Feb-21 08:47N 33°43' W 118°17'0 0.0
2018-Feb-21 08:29N 33°43' W 118°17'0 0.0
2018-Feb-21 07:59N 33°43' W 118°17'0 0.0
2018-Feb-21 07:29N 33°43' W 118°17'0 0.0
2018-Feb-21 06:23N 33°43' W 118°17'0 0.0
2018-Feb-21 05:47N 33°43' W 118°17'0 0.0
2018-Feb-21 05:29N 33°43' W 118°17'0 0.0
2018-Feb-21 04:59N 33°43' W 118°17'0 0.0
2018-Feb-21 04:14N 33°43' W 118°17'0 0.0
2018-Feb-21 03:56N 33°43' W 118°17'0 0.0
2018-Feb-21 03:26N 33°43' W 118°17'0 0.0
2018-Feb-21 02:41N 33°43' W 118°17'0 0.0
2018-Feb-21 02:29N 33°43' W 118°17'0 0.0
2018-Feb-21 01:59N 33°43' W 118°17'0 0.0
2018-Feb-21 01:29N 33°43' W 118°17'0 0.0
2018-Feb-21 00:59N 33°43' W 118°17'0 0.0
2018-Feb-21 00:29N 33°43' W 118°17'0 0.0
2018-Feb-20 23:59N 33°43' W 118°17'0 0.0
2018-Feb-20 23:29N 33°43' W 118°17'0 0.0
2018-Feb-20 22:59N 33°43' W 118°17'0 0.0
2018-Feb-20 22:29N 33°43' W 118°17'0 0.0
2018-Feb-20 21:59N 33°43' W 118°17'0 0.0
2018-Feb-20 21:29N 33°43' W 118°17'0 0.0
2018-Feb-20 20:59N 33°43' W 118°17'0 0.0
2018-Feb-20 20:29N 33°43' W 118°17'0 0.0
2018-Feb-20 19:59N 33°43' W 118°17'0 0.0
2018-Feb-20 19:29N 33°43' W 118°17'0 0.0
2018-Feb-20 18:59N 33°43' W 118°17'0 0.0
2018-Feb-20 18:29N 33°43' W 118°17'0 0.0
2018-Feb-20 17:59N 33°43' W 118°17'0 0.0
2018-Feb-20 17:30N 33°43' W 118°17'2 4.2
2018-Feb-20 17:00N 33°42' W 118°14'30 2.5
2018-Feb-20 05:02N 33°14' W 118°01'0 3.3
2018-Feb-20 05:00N 33°14' W 118°01'2 4.5
2018-Feb-20 04:29N 33°15' W 117°58'2 3.6
2018-Feb-20 04:00N 33°15' W 117°56'1 2.2
2018-Feb-20 03:30N 33°16' W 117°55'2 3.3
2018-Feb-20 03:00N 33°17' W 117°53'2 4.4
2018-Feb-20 02:29N 33°18' W 117°51'2 2.9
2018-Feb-20 01:55N 33°20' W 117°50'10 4.5
2018-Feb-19 23:37N 33°29' W 117°46'0 3.3
2018-Feb-19 23:28N 33°29' W 117°47'3 3.8
2018-Feb-19 22:34N 33°26' W 117°46'1 3.3
2018-Feb-19 22:24N 33°25' W 117°46'2 4.1
2018-Feb-19 22:00N 33°24' W 117°46'2 4.3
2018-Feb-19 21:28N 33°21' W 117°45'3 4.6
2018-Feb-19 20:50N 33°18' W 117°45'1 3.3
2018-Feb-19 20:29N 33°17' W 117°45'2 4.0
2018-Feb-19 20:00N 33°15' W 117°45'2 4.1
2018-Feb-19 19:30N 33°13' W 117°46'2 4.5
2018-Feb-19 19:00N 33°11' W 117°46'3 5.5
2018-Feb-19 18:30N 33°08' W 117°47'2 4.7
2018-Feb-19 18:00N 33°06' W 117°48'2 3.8
2018-Feb-19 17:30N 33°05' W 117°49'1 2.6
2018-Feb-19 17:00N 33°03' W 117°50'2 3.5
2018-Feb-19 16:30N 33°02' W 117°50'2 3.6
2018-Feb-19 15:59N 32°60' W 117°50'1 2.7
2018-Feb-19 15:30N 32°59' W 117°50'1 1.9
2018-Feb-19 15:00N 32°58' W 117°49'1 2.0
2018-Feb-19 14:30N 32°57' W 117°49'1 1.5
2018-Feb-19 14:00N 32°56' W 117°49'1 1.3
2018-Feb-19 13:30N 32°55' W 117°49'1 1.7
2018-Feb-19 13:00N 32°54' W 117°49'1 1.4
2018-Feb-19 12:30N 32°54' W 117°49'1 2.0
2018-Feb-19 12:00N 32°53' W 117°49'1 2.3
2018-Feb-19 11:28N 32°52' W 117°48'1 2.6
2018-Feb-19 10:58N 32°50' W 117°48'1 3.2
2018-Feb-19 10:30N 32°49' W 117°47'2 3.3
2018-Feb-19 10:00N 32°47' W 117°46'2 3.8
2018-Feb-19 09:30N 32°46' W 117°46'2 4.1
2018-Feb-19 09:00N 32°44' W 117°45'2 4.6
2018-Feb-19 08:30N 32°42' W 117°43'2 4.8
2018-Feb-19 08:00N 32°39' W 117°42'5 4.9
2018-Feb-19 07:00N 32°36' W 117°38'3 6.1
2018-Feb-19 06:30N 32°36' W 117°35'3 6.1
2018-Feb-19 06:00N 32°36' W 117°31'  
Track history (hours):
 
Tides and Currents Weather Stations Pressure Air Temp Water Temp Dewpoint Dewpoint Depression Visibility Wind Speed Wind Dir Waves Ship Positions

Stad Amsterdam (Netherlands)

Ship's website: http://www.stadamsterdam.com/content/home/index.xml

Last reported at 2018-Feb-21 17:29 UTC. Time now 2018-Feb-21 17:40 UTC.
Position N 33°43' W 118°17'.

Length 76 m; beam 10 m.

Type: Sailing vessel. MMSI: 246494000.

Date/timePositionNaut miles runAvg speedWind from/ knotsBaromVisibWave heightAir tempDewpointWater temp
2018-Feb-21 17:29N 33°43' W 118°17'0 0.0
2018-Feb-21 16:59N 33°43' W 118°17'0 0.0
2018-Feb-21 16:29N 33°43' W 118°17'0 0.0
2018-Feb-21 15:59N 33°43' W 118°17'0 0.0
2018-Feb-21 15:29N 33°43' W 118°17'0 0.0
2018-Feb-21 14:59N 33°43' W 118°17'0 0.0
2018-Feb-21 14:29N 33°43' W 118°17'0 0.0
2018-Feb-21 13:41N 33°43' W 118°17'0 0.0
2018-Feb-21 13:29N 33°43' W 118°17'0 0.0
2018-Feb-21 12:59N 33°43' W 118°17'0 0.0
2018-Feb-21 12:29N 33°43' W 118°17'0 0.0
2018-Feb-21 11:59N 33°43' W 118°17'0 0.0
2018-Feb-21 11:17N 33°43' W 118°17'0 0.0
2018-Feb-21 10:59N 33°43' W 118°17'0 0.0
2018-Feb-21 09:17N 33°43' W 118°17'0 0.0
2018-Feb-21 08:47N 33°43' W 118°17'0 0.0
2018-Feb-21 08:29N 33°43' W 118°17'0 0.0
2018-Feb-21 07:59N 33°43' W 118°17'0 0.0
2018-Feb-21 07:29N 33°43' W 118°17'0 0.0
2018-Feb-21 06:23N 33°43' W 118°17'0 0.0
2018-Feb-21 05:47N 33°43' W 118°17'0 0.0
2018-Feb-21 05:29N 33°43' W 118°17'0 0.0
2018-Feb-21 04:59N 33°43' W 118°17'0 0.0
2018-Feb-21 04:14N 33°43' W 118°17'0 0.0
2018-Feb-21 03:56N 33°43' W 118°17'0 0.0
2018-Feb-21 03:26N 33°43' W 118°17'0 0.0
2018-Feb-21 02:41N 33°43' W 118°17'0 0.0
2018-Feb-21 02:29N 33°43' W 118°17'0 0.0
2018-Feb-21 01:59N 33°43' W 118°17'0 0.0
2018-Feb-21 01:29N 33°43' W 118°17'0 0.0
2018-Feb-21 00:59N 33°43' W 118°17'0 0.0
2018-Feb-21 00:29N 33°43' W 118°17'0 0.0
2018-Feb-20 23:59N 33°43' W 118°17'0 0.0
2018-Feb-20 23:29N 33°43' W 118°17'0 0.0
2018-Feb-20 22:59N 33°43' W 118°17'0 0.0
2018-Feb-20 22:29N 33°43' W 118°17'0 0.0
2018-Feb-20 21:59N 33°43' W 118°17'0 0.0
2018-Feb-20 21:29N 33°43' W 118°17'0 0.0
2018-Feb-20 20:59N 33°43' W 118°17'0 0.0
2018-Feb-20 20:29N 33°43' W 118°17'0 0.0
2018-Feb-20 19:59N 33°43' W 118°17'0 0.0
2018-Feb-20 19:29N 33°43' W 118°17'0 0.0
2018-Feb-20 18:59N 33°43' W 118°17'0 0.0
2018-Feb-20 18:29N 33°43' W 118°17'0 0.0
2018-Feb-20 17:59N 33°43' W 118°17'0 0.0
2018-Feb-20 17:30N 33°43' W 118°17'2 4.2
2018-Feb-20 17:00N 33°42' W 118°14'30 2.5
2018-Feb-20 05:02N 33°14' W 118°01'0 3.3
2018-Feb-20 05:00N 33°14' W 118°01'2 4.5
2018-Feb-20 04:29N 33°15' W 117°58'2 3.6
2018-Feb-20 04:00N 33°15' W 117°56'1 2.2
2018-Feb-20 03:30N 33°16' W 117°55'2 3.3
2018-Feb-20 03:00N 33°17' W 117°53'2 4.4
2018-Feb-20 02:29N 33°18' W 117°51'2 2.9
2018-Feb-20 01:55N 33°20' W 117°50'10 4.5
2018-Feb-19 23:37N 33°29' W 117°46'0 3.3
2018-Feb-19 23:28N 33°29' W 117°47'3 3.8
2018-Feb-19 22:34N 33°26' W 117°46'1 3.3
2018-Feb-19 22:24N 33°25' W 117°46'2 4.1
2018-Feb-19 22:00N 33°24' W 117°46'2 4.3
2018-Feb-19 21:28N 33°21' W 117°45'3 4.6
2018-Feb-19 20:50N 33°18' W 117°45'1 3.3
2018-Feb-19 20:29N 33°17' W 117°45'2 4.0
2018-Feb-19 20:00N 33°15' W 117°45'2 4.1
2018-Feb-19 19:30N 33°13' W 117°46'2 4.5
2018-Feb-19 19:00N 33°11' W 117°46'3 5.5
2018-Feb-19 18:30N 33°08' W 117°47'2 4.7
2018-Feb-19 18:00N 33°06' W 117°48'2 3.8
2018-Feb-19 17:30N 33°05' W 117°49'1 2.6
2018-Feb-19 17:00N 33°03' W 117°50'2 3.5
2018-Feb-19 16:30N 33°02' W 117°50'2 3.6
2018-Feb-19 15:59N 32°60' W 117°50'1 2.7
2018-Feb-19 15:30N 32°59' W 117°50'1 1.9
2018-Feb-19 15:00N 32°58' W 117°49'1 2.0
2018-Feb-19 14:30N 32°57' W 117°49'1 1.5
2018-Feb-19 14:00N 32°56' W 117°49'1 1.3
2018-Feb-19 13:30N 32°55' W 117°49'1 1.7
2018-Feb-19 13:00N 32°54' W 117°49'1 1.4
2018-Feb-19 12:30N 32°54' W 117°49'1 2.0
2018-Feb-19 12:00N 32°53' W 117°49'1 2.3
2018-Feb-19 11:28N 32°52' W 117°48'1 2.6
2018-Feb-19 10:58N 32°50' W 117°48'1 3.2
2018-Feb-19 10:30N 32°49' W 117°47'2 3.3
2018-Feb-19 10:00N 32°47' W 117°46'2 3.8
2018-Feb-19 09:30N 32°46' W 117°46'2 4.1
2018-Feb-19 09:00N 32°44' W 117°45'2 4.6
2018-Feb-19 08:30N 32°42' W 117°43'2 4.8
2018-Feb-19 08:00N 32°39' W 117°42'5 4.9
2018-Feb-19 07:00N 32°36' W 117°38'3 6.1
2018-Feb-19 06:30N 32°36' W 117°35'3 6.1
2018-Feb-19 06:00N 32°36' W 117°31'  

Dump ship's entire track history